Time;durP1;ratioP1;P1;durP2;ratioP2;P2;SDS_P1;SDS_P2;PMS_P1;PMS_P2;Temp;Humidity;BMP_temperature;BMP_pressure;BME280_temperature;BME280_humidity;BME280_pressure;Samples;Min_cycle;Max_cycle;Signal;HPM_P1;HPM_P2
2022/01/10 00:01:03;;;;;;;10.85;3.10;;;3.60;99.90;;;;;;4264553;27;20113;-85
2022/01/10 00:03:05;;;;;;;14.75;2.90;;;4.50;99.90;;;;;;4250737;27;20065;-85
2022/01/10 00:05:06;;;;;;;16.45;2.60;;;5.00;99.90;;;;;;4215685;28;20052;-85
2022/01/10 00:07:06;;;;;;;13.57;1.63;;;3.70;99.90;;;;;;4238113;27;20043;-85
2022/01/10 00:09:08;;;;;;;13.02;2.67;;;4.60;99.90;;;;;;4214370;28;20503;-85
2022/01/10 00:11:09;;;;;;;11.88;2.17;;;4.20;99.90;;;;;;4249477;27;20126;-85
2022/01/10 00:13:10;;;;;;;17.52;2.38;;;4.50;99.90;;;;;;4221010;28;20048;-85
2022/01/10 00:15:12;;;;;;;10.82;2.70;;;4.60;99.90;;;;;;4221359;28;20501;-85
2022/01/10 00:17:13;;;;;;;12.05;2.65;;;3.60;99.90;;;;;;4231039;28;20096;-85
2022/01/10 00:19:14;;;;;;;12.60;2.40;;;5.20;99.90;;;;;;4242304;27;20044;-85
2022/01/10 00:21:15;;;;;;;11.60;1.83;;;3.60;99.90;;;;;;4266519;27;20030;-85
2022/01/10 00:23:16;;;;;;;10.57;2.33;;;4.50;99.90;;;;;;4248159;27;20047;-85
2022/01/10 00:25:21;;;;;;;15.15;2.95;;;3.60;99.90;;;;;;4223380;28;20381;-85
2022/01/10 00:27:21;;;;;;;20.05;2.03;;;3.50;99.90;;;;;;4248842;27;20046;-86
2022/01/10 00:29:22;;;;;;;15.07;1.83;;;4.80;99.90;;;;;;4231120;28;20045;-85
2022/01/10 00:31:23;;;;;;;11.85;2.10;;;3.70;99.90;;;;;;4255750;27;20038;-86
2022/01/10 00:33:24;;;;;;;10.68;2.42;;;3.50;99.90;;;;;;4248752;27;20038;-85
2022/01/10 00:35:25;;;;;;;12.20;1.50;;;4.50;99.90;;;;;;4248018;27;20050;-86
2022/01/10 00:37:29;;;;;;;12.77;2.22;;;4.80;99.90;;;;;;4221890;28;20040;-85
2022/01/10 00:39:30;;;;;;;15.20;2.70;;;3.40;99.90;;;;;;4231043;28;20047;-85
2022/01/10 00:41:31;;;;;;;16.40;2.30;;;3.60;99.90;;;;;;4249025;27;20154;-85
2022/01/10 00:43:39;;;;;;;15.77;2.58;;;3.80;99.90;;;;;;4249540;27;20054;-86
2022/01/10 00:45:40;;;;;;;13.38;2.40;;;3.40;99.90;;;;;;4213563;28;20534;-86
2022/01/10 00:47:45;;;;;;;10.45;2.72;;;3.50;99.90;;;;;;4214153;28;20044;-85
2022/01/10 00:49:46;;;;;;;13.75;2.40;;;4.40;99.90;;;;;;4237542;27;20049;-85
2022/01/10 00:51:47;;;;;;;8.85;2.10;;;4.70;99.90;;;;;;4247940;27;20043;-85
2022/01/10 00:53:52;;;;;;;13.25;3.08;;;3.70;99.90;;;;;;4247204;27;20510;-85
2022/01/10 00:55:54;;;;;;;12.13;2.15;;;3.30;99.90;;;;;;4253643;27;20051;-85
2022/01/10 00:57:55;;;;;;;11.10;2.65;;;3.70;99.90;;;;;;4214427;28;20347;-85
2022/01/10 00:59:56;;;;;;;13.50;3.22;;;3.60;99.90;;;;;;4248320;27;20415;-86
2022/01/10 01:01:57;;;;;;;10.02;1.92;;;3.00;99.90;;;;;;4243650;27;20035;-85
2022/01/10 01:03:57;;;;;;;10.32;2.20;;;4.30;99.90;;;;;;4248125;27;20046;-85
2022/01/10 01:05:58;;;;;;;12.00;2.95;;;4.60;99.90;;;;;;4265666;27;20046;-85
2022/01/10 01:08:03;;;;;;;16.52;2.55;;;3.50;99.90;;;;;;4257261;27;20641;-85
2022/01/10 01:10:32;;;;;;;10.10;2.13;;;4.40;99.90;;;;;;4248298;27;20047;-85
2022/01/10 01:12:43;;;;;;;12.68;4.03;;;2.20;99.90;;;;;;4237471;28;20058;-85
2022/01/10 01:16:56;;;;;;;12.93;2.42;;;3.70;99.90;;;;;;4245766;28;20569;-85
2022/01/10 01:19:50;;;;;;;13.27;2.05;;;3.70;99.90;;;;;;4247364;28;20530;-85
2022/01/10 01:26:02;;;;;;;11.48;1.83;;;2.90;99.90;;;;;;4229234;28;20430;-85
2022/01/10 01:28:03;;;;;;;17.67;2.78;;;3.00;99.90;;;;;;4223713;28;20472;-85
2022/01/10 01:30:07;;;;;;;9.13;2.25;;;2.80;99.90;;;;;;4230016;28;20055;-85
2022/01/10 01:32:07;;;;;;;16.90;2.75;;;2.80;99.90;;;;;;4230898;28;20060;-85
2022/01/10 01:34:09;;;;;;;15.60;3.67;;;4.00;99.90;;;;;;4242706;28;20122;-85
2022/01/10 01:36:11;;;;;;;9.48;2.00;;;2.70;99.90;;;;;;4248730;28;20043;-85
2022/01/10 01:38:13;;;;;;;11.40;2.15;;;2.70;99.90;;;;;;4230720;28;20039;-85
2022/01/10 01:40:15;;;;;;;23.33;2.67;;;2.70;99.90;;;;;;4248566;28;20047;-85
2022/01/10 01:42:32;;;;;;;10.65;1.92;;;2.80;99.90;;;;;;4247371;27;20509;-85
2022/01/10 01:44:33;;;;;;;10.70;2.40;;;2.70;99.90;;;;;;4216562;28;20119;-85
2022/01/10 01:46:35;;;;;;;10.57;1.92;;;3.30;99.90;;;;;;4234275;28;20073;-85
2022/01/10 01:48:36;;;;;;;13.30;2.05;;;2.60;99.90;;;;;;4235166;28;20039;-85
2022/01/10 01:50:38;;;;;;;10.70;2.47;;;2.70;99.90;;;;;;4218108;28;20071;-85
2022/01/10 01:52:38;;;;;;;14.18;2.22;;;3.50;99.90;;;;;;4252775;27;20047;-85
2022/01/10 01:54:40;;;;;;;6.95;2.10;;;2.50;99.90;;;;;;4252448;27;20043;-85
2022/01/10 01:56:41;;;;;;;7.85;1.95;;;2.50;99.90;;;;;;4234016;28;20122;-85
2022/01/10 01:58:43;;;;;;;12.73;2.72;;;2.50;99.90;;;;;;4234157;28;20050;-85
2022/01/10 02:00:45;;;;;;;13.52;3.00;;;3.90;99.90;;;;;;4252115;27;20035;-85
2022/01/10 02:02:47;;;;;;;9.93;3.60;;;2.50;99.90;;;;;;4217304;28;20051;-85
2022/01/10 02:04:48;;;;;;;13.43;2.75;;;2.50;99.90;;;;;;4252276;27;20050;-85
2022/01/10 02:06:50;;;;;;;11.48;2.10;;;3.00;99.90;;;;;;4252044;27;20051;-85
2022/01/10 02:08:51;;;;;;;8.75;1.90;;;2.70;99.90;;;;;;4217345;28;20055;-85
2022/01/10 02:10:53;;;;;;;11.30;2.63;;;2.40;99.90;;;;;;4217017;28;20472;-85
2022/01/10 02:12:53;;;;;;;14.20;3.08;;;2.40;99.90;;;;;;4252169;27;20542;-85
2022/01/10 02:14:54;;;;;;;16.40;2.20;;;2.40;99.90;;;;;;4233246;28;20100;-85
2022/01/10 02:16:56;;;;;;;8.40;1.92;;;3.10;99.90;;;;;;4249606;27;20053;-85
2022/01/10 02:18:59;;;;;;;11.82;2.65;;;2.70;99.90;;;;;;4250692;27;20577;-85
2022/01/10 02:21:01;;;;;;;11.50;1.92;;;2.40;99.90;;;;;;4268942;27;20461;-85
2022/01/10 02:23:03;;;;;;;11.80;2.72;;;3.00;99.90;;;;;;4236801;27;20119;-85
2022/01/10 02:25:04;;;;;;;10.13;2.08;;;3.30;99.90;;;;;;4238677;27;20058;-85
2022/01/10 02:27:05;;;;;;;6.97;2.25;;;2.40;99.90;;;;;;4233459;28;20051;-85
2022/01/10 02:29:07;;;;;;;14.43;2.17;;;2.40;99.90;;;;;;4216408;28;20083;-86
2022/01/10 02:31:08;;;;;;;11.00;2.97;;;2.40;99.90;;;;;;4233539;28;20047;-85
2022/01/10 02:33:10;;;;;;;13.20;2.45;;;2.30;99.90;;;;;;4217160;28;20047;-85
2022/01/10 02:35:31;;;;;;;17.35;2.25;;;2.30;99.90;;;;;;4268970;27;20035;-85
2022/01/10 02:37:35;;;;;;;26.00;3.88;;;2.30;99.90;;;;;;4256225;27;20063;-85
2022/01/10 02:39:36;;;;;;;6.45;1.95;;;2.30;99.90;;;;;;4233883;28;20109;-85
2022/01/10 02:41:43;;;;;;;10.30;1.95;;;2.30;99.90;;;;;;4244960;27;20499;-85
2022/01/10 02:43:44;;;;;;;10.95;2.38;;;2.80;99.90;;;;;;4257495;27;20059;-85
2022/01/10 02:45:47;;;;;;;8.07;2.17;;;2.20;99.90;;;;;;4216393;28;20431;-85
2022/01/10 02:47:48;;;;;;;14.70;2.83;;;3.30;99.90;;;;;;4233264;28;20055;-85
2022/01/10 02:49:50;;;;;;;11.50;2.50;;;2.20;99.90;;;;;;4245315;27;20412;-84
2022/01/10 02:51:53;;;;;;;8.55;1.98;;;2.30;99.90;;;;;;4268482;27;20165;-85
2022/01/10 02:53:55;;;;;;;5.88;2.28;;;2.20;99.90;;;;;;4250081;27;20514;-85
2022/01/10 02:55:55;;;;;;;5.68;2.05;;;2.20;99.90;;;;;;4237148;27;20039;-85
2022/01/10 02:57:56;;;;;;;10.27;2.22;;;2.10;99.90;;;;;;4216664;28;20198;-86
2022/01/10 02:59:59;;;;;;;11.98;2.45;;;2.10;99.90;;;;;;4251863;27;20047;-86
2022/01/10 03:02:00;;;;;;;14.50;2.92;;;2.10;99.90;;;;;;4251816;27;20039;-85
2022/01/10 03:04:00;;;;;;;10.73;2.58;;;3.20;99.90;;;;;;4252766;27;20047;-84
2022/01/10 03:06:02;;;;;;;9.18;2.70;;;2.10;99.90;;;;;;4233251;28;20047;-85
2022/01/10 03:08:04;;;;;;;9.48;1.92;;;2.10;99.90;;;;;;4250796;27;20122;-85
2022/01/10 03:10:06;;;;;;;10.45;2.25;;;2.10;99.90;;;;;;4215473;28;20500;-85
2022/01/10 03:12:09;;;;;;;13.32;2.50;;;2.10;99.90;;;;;;4233074;28;20084;-85
2022/01/10 03:14:12;;;;;;;7.20;2.50;;;2.00;99.90;;;;;;4251061;27;20456;-85
2022/01/10 03:16:13;;;;;;;16.35;3.00;;;2.00;99.90;;;;;;4232291;28;20094;-85
2022/01/10 03:18:14;;;;;;;12.50;2.97;;;2.00;99.90;;;;;;4232102;28;20040;-85
2022/01/10 03:20:16;;;;;;;15.88;2.63;;;2.00;99.90;;;;;;4215363;28;20409;-85
2022/01/10 03:22:16;;;;;;;12.30;2.88;;;1.90;99.90;;;;;;4250521;27;20164;-85
2022/01/10 03:24:19;;;;;;;17.50;2.67;;;2.00;99.90;;;;;;4215377;28;20519;-85
2022/01/10 03:26:19;;;;;;;16.05;3.20;;;2.00;99.90;;;;;;4249176;27;20608;-85
2022/01/10 03:28:21;;;;;;;10.93;3.03;;;2.00;99.90;;;;;;4232671;28;20129;-85
2022/01/10 03:30:22;;;;;;;7.40;2.65;;;2.00;99.90;;;;;;4233165;28;20055;-85
2022/01/10 03:32:24;;;;;;;11.55;3.17;;;2.00;99.90;;;;;;4233560;28;20094;-85
2022/01/10 03:34:24;;;;;;;16.40;2.45;;;2.00;99.90;;;;;;4233459;28;20036;-85
2022/01/10 03:36:26;;;;;;;13.65;2.33;;;1.90;99.90;;;;;;4217556;28;20060;-85
2022/01/10 03:38:28;;;;;;;10.93;2.75;;;2.70;99.90;;;;;;4251920;27;20449;-85
2022/01/10 03:40:28;;;;;;;9.75;2.55;;;1.90;99.90;;;;;;4227499;28;20047;-84
2022/01/10 03:42:29;;;;;;;11.77;2.28;;;1.90;99.90;;;;;;4248552;27;20082;-84
2022/01/10 03:44:30;;;;;;;8.18;2.50;;;1.90;99.90;;;;;;4246809;28;20043;-84
2022/01/10 03:46:33;;;;;;;10.93;2.25;;;1.90;99.90;;;;;;4264182;27;20047;-84
2022/01/10 03:48:34;;;;;;;13.32;2.80;;;1.80;99.90;;;;;;4257345;27;20046;-85
2022/01/10 03:50:35;;;;;;;12.50;2.75;;;1.90;99.90;;;;;;4267139;27;20494;-85
2022/01/10 03:52:36;;;;;;;11.57;2.50;;;2.10;99.90;;;;;;4248985;27;20043;-85
2022/01/10 03:54:37;;;;;;;13.23;3.20;;;1.80;99.90;;;;;;4248973;27;20055;-85
2022/01/10 03:56:38;;;;;;;11.05;2.63;;;2.80;99.90;;;;;;4237791;27;20036;-84
2022/01/10 03:58:40;;;;;;;21.73;3.63;;;1.80;99.90;;;;;;4248027;27;20100;-85
2022/01/10 04:00:42;;;;;;;13.88;2.42;;;2.70;99.90;;;;;;4221209;28;20736;-85
2022/01/10 04:02:51;;;;;;;8.60;3.17;;;1.80;99.90;;;;;;4232891;28;20055;-85
2022/01/10 04:04:51;;;;;;;12.65;2.78;;;1.80;99.90;;;;;;4249368;27;20563;-85
2022/01/10 04:06:54;;;;;;;14.68;2.75;;;1.80;99.90;;;;;;4266497;27;20046;-84
2022/01/10 04:08:55;;;;;;;10.10;2.80;;;1.70;99.90;;;;;;4267613;27;20039;-85
2022/01/10 04:10:56;;;;;;;8.55;3.00;;;1.90;99.90;;;;;;4232534;28;20134;-85
2022/01/10 04:12:56;;;;;;;14.73;3.67;;;1.70;99.90;;;;;;4267440;27;20090;-85
2022/01/10 04:14:57;;;;;;;14.52;2.67;;;1.70;99.90;;;;;;4251194;27;20047;-85
2022/01/10 04:16:59;;;;;;;12.38;3.20;;;1.70;99.90;;;;;;4232324;28;20040;-85
2022/01/10 04:19:00;;;;;;;12.98;3.13;;;1.70;99.90;;;;;;4249861;27;20042;-84
2022/01/10 04:21:01;;;;;;;9.90;2.60;;;1.70;99.90;;;;;;4215230;28;20048;-84
2022/01/10 04:23:02;;;;;;;15.57;3.95;;;1.70;99.90;;;;;;4251081;27;20039;-85
2022/01/10 04:25:04;;;;;;;8.55;2.95;;;1.70;99.90;;;;;;4232035;28;20047;-85
2022/01/10 04:27:06;;;;;;;8.80;3.10;;;1.70;99.90;;;;;;4249902;27;20039;-85
2022/01/10 04:29:08;;;;;;;12.25;3.15;;;1.70;99.90;;;;;;4231718;28;20051;-85
2022/01/10 04:31:11;;;;;;;10.98;2.85;;;2.20;99.90;;;;;;4232008;28;20473;-85
2022/01/10 04:33:18;;;;;;;15.10;3.13;;;1.70;99.90;;;;;;4250787;27;20420;-85
2022/01/10 04:35:19;;;;;;;10.05;3.92;;;1.70;99.90;;;;;;4250303;27;20108;-85
2022/01/10 04:37:21;;;;;;;13.55;3.13;;;1.60;99.90;;;;;;4249966;27;20159;-85
2022/01/10 04:39:23;;;;;;;11.43;3.03;;;1.60;99.90;;;;;;4249638;27;20050;-85
2022/01/10 04:41:23;;;;;;;12.32;3.40;;;1.60;99.90;;;;;;4249252;27;20139;-85
2022/01/10 04:43:25;;;;;;;12.20;3.38;;;2.70;99.90;;;;;;4249825;27;20111;-86
2022/01/10 04:45:26;;;;;;;9.68;2.88;;;1.60;99.90;;;;;;4232197;28;20408;-84
2022/01/10 04:47:27;;;;;;;10.85;2.78;;;1.60;99.90;;;;;;4231742;28;20086;-85
2022/01/10 04:49:37;;;;;;;11.60;4.25;;;1.60;99.90;;;;;;4248927;27;20522;-85
2022/01/10 04:51:38;;;;;;;16.20;3.92;;;1.60;99.90;;;;;;4231310;28;20046;-85
2022/01/10 04:53:45;;;;;;;10.43;3.28;;;1.60;99.90;;;;;;4267558;27;20039;-85
2022/01/10 04:55:46;;;;;;;13.15;3.55;;;1.60;99.90;;;;;;4248074;27;20043;-85
2022/01/10 04:57:48;;;;;;;10.52;3.78;;;1.60;99.90;;;;;;4267184;27;20107;-85
2022/01/10 04:59:49;;;;;;;10.90;3.28;;;1.60;99.90;;;;;;4248224;27;20047;-85
2022/01/10 05:01:50;;;;;;;15.75;3.85;;;1.60;99.90;;;;;;4248248;27;20072;-85
2022/01/10 05:03:50;;;;;;;17.35;3.92;;;1.50;99.90;;;;;;4266641;27;20051;-85
2022/01/10 05:05:53;;;;;;;18.23;4.15;;;1.70;99.90;;;;;;4215797;28;20048;-85
2022/01/10 05:07:55;;;;;;;13.80;3.63;;;1.50;99.90;;;;;;4244534;28;20054;-85
2022/01/10 05:09:58;;;;;;;10.75;3.15;;;1.50;99.90;;;;;;4232488;28;20118;-84
2022/01/10 05:11:59;;;;;;;12.68;3.67;;;1.50;99.90;;;;;;4231378;28;20052;-85
2022/01/10 05:13:59;;;;;;;13.85;2.90;;;1.50;99.90;;;;;;4249568;27;20054;-84
2022/01/10 05:16:00;;;;;;;20.23;3.53;;;1.50;99.90;;;;;;4214682;28;20515;-85
2022/01/10 05:18:01;;;;;;;15.82;3.92;;;1.50;99.90;;;;;;4230771;28;20044;-84
2022/01/10 05:20:03;;;;;;;13.80;4.20;;;2.40;99.90;;;;;;4231618;28;20094;-85
2022/01/10 05:22:04;;;;;;;13.45;3.85;;;1.50;99.90;;;;;;4216235;28;20163;-85
2022/01/10 05:24:07;;;;;;;18.38;4.05;;;1.50;99.90;;;;;;4235218;28;20048;-85
2022/01/10 05:26:07;;;;;;;16.77;3.63;;;1.70;99.90;;;;;;4269070;27;20103;-85
2022/01/10 05:28:14;;;;;;;15.30;4.32;;;1.60;99.90;;;;;;4254075;28;20046;-85
2022/01/10 05:30:15;;;;;;;14.93;4.25;;;1.80;99.90;;;;;;4272304;27;20131;-85
2022/01/10 05:32:16;;;;;;;19.80;5.88;;;1.50;99.90;;;;;;4218915;28;20055;-85
2022/01/10 05:34:17;;;;;;;8.63;3.72;;;1.50;99.90;;;;;;4217332;28;20052;-85
2022/01/10 05:36:18;;;;;;;14.27;3.88;;;2.20;99.90;;;;;;4232389;28;20517;-85
2022/01/10 05:38:19;;;;;;;17.85;4.90;;;1.50;99.90;;;;;;4214703;28;20072;-85
2022/01/10 05:40:21;;;;;;;14.70;4.38;;;1.50;99.90;;;;;;4250140;28;20127;-85
2022/01/10 05:42:23;;;;;;;15.75;4.25;;;1.40;99.90;;;;;;4231576;28;20136;-85
2022/01/10 05:44:25;;;;;;;11.90;4.43;;;2.10;99.90;;;;;;4214961;28;20036;-85
2022/01/10 05:46:26;;;;;;;16.75;4.28;;;1.50;99.90;;;;;;4230622;28;20086;-85
2022/01/10 05:48:30;;;;;;;12.45;4.38;;;1.40;99.90;;;;;;4249887;28;20436;-85
2022/01/10 05:50:34;;;;;;;17.17;4.65;;;1.40;99.90;;;;;;4214420;28;20044;-85
2022/01/10 05:52:36;;;;;;;13.07;5.20;;;1.40;99.90;;;;;;4249346;28;20075;-85
2022/01/10 05:54:38;;;;;;;23.52;5.07;;;1.40;99.90;;;;;;4251222;27;20058;-85
2022/01/10 05:56:39;;;;;;;12.07;3.67;;;1.40;99.90;;;;;;4267387;27;20090;-85
2022/01/10 05:58:41;;;;;;;11.40;5.07;;;1.40;99.90;;;;;;4266208;27;20057;-85
2022/01/10 06:00:42;;;;;;;22.42;5.38;;;1.40;99.90;;;;;;4263174;27;20042;-85
2022/01/10 06:02:43;;;;;;;13.93;4.35;;;1.50;99.90;;;;;;4249151;28;20152;-85
2022/01/10 06:04:43;;;;;;;18.75;4.63;;;1.40;99.90;;;;;;4249502;28;20090;-85
2022/01/10 06:06:44;;;;;;;15.13;4.65;;;2.30;99.90;;;;;;4228277;28;20534;-86
2022/01/10 06:08:46;;;;;;;13.50;4.88;;;1.30;99.90;;;;;;4247470;28;20515;-85
2022/01/10 06:10:48;;;;;;;19.85;4.60;;;1.30;99.90;;;;;;4230028;28;20035;-84
2022/01/10 06:12:48;;;;;;;16.77;4.50;;;1.80;99.90;;;;;;4247513;27;20039;-85
2022/01/10 06:14:50;;;;;;;16.15;5.70;;;1.40;99.90;;;;;;4211801;28;20052;-85
2022/01/10 06:16:52;;;;;;;14.23;5.55;;;1.80;99.90;;;;;;4212352;28;20413;-85
2022/01/10 06:18:52;;;;;;;19.13;5.22;;;1.60;99.90;;;;;;4216125;28;20515;-85
2022/01/10 06:20:54;;;;;;;20.00;5.13;;;1.30;99.90;;;;;;4232701;28;20043;-85
2022/01/10 06:22:55;;;;;;;18.45;5.45;;;1.60;99.90;;;;;;4250531;27;20039;-85
2022/01/10 06:24:56;;;;;;;19.95;5.88;;;1.20;99.90;;;;;;4243349;28;20122;-85
2022/01/10 06:26:57;;;;;;;15.23;5.47;;;1.20;99.90;;;;;;4249105;28;20077;-85
2022/01/10 06:29:00;;;;;;;21.55;5.20;;;1.20;99.90;;;;;;4215786;28;20054;-85
2022/01/10 06:31:01;;;;;;;12.95;5.63;;;1.20;99.90;;;;;;4239216;27;20475;-85
2022/01/10 06:33:02;;;;;;;21.55;6.20;;;1.60;99.90;;;;;;4234211;28;20040;-85
2022/01/10 06:35:03;;;;;;;12.40;5.18;;;1.20;99.90;;;;;;4252713;27;20055;-85
2022/01/10 06:37:05;;;;;;;22.65;5.68;;;1.20;99.90;;;;;;4252366;27;20040;-85
2022/01/10 06:39:07;;;;;;;22.33;6.90;;;1.10;99.90;;;;;;4243410;27;20047;-85
2022/01/10 06:41:08;;;;;;;17.95;6.30;;;1.10;99.90;;;;;;4234628;28;20073;-86
2022/01/10 06:43:08;;;;;;;18.23;6.07;;;1.60;99.90;;;;;;4217259;28;20052;-85
2022/01/10 06:45:10;;;;;;;14.90;5.80;;;1.10;99.90;;;;;;4218067;28;20405;-85
2022/01/10 06:47:11;;;;;;;15.95;6.93;;;1.10;99.90;;;;;;4234384;28;20066;-85
2022/01/10 06:49:13;;;;;;;23.15;6.82;;;1.10;99.90;;;;;;4217163;28;20052;-85
2022/01/10 06:51:16;;;;;;;22.00;6.50;;;1.10;99.90;;;;;;4217111;28;20493;-85
2022/01/10 06:53:18;;;;;;;27.38;7.38;;;1.10;99.90;;;;;;4252463;27;20031;-85
2022/01/10 06:55:22;;;;;;;21.60;6.85;;;1.70;99.90;;;;;;4252461;27;20081;-86
2022/01/10 06:57:23;;;;;;;24.17;7.75;;;1.90;99.90;;;;;;4233694;28;20043;-85
2022/01/10 06:59:25;;;;;;;17.75;5.90;;;1.10;99.90;;;;;;4233069;28;20047;-85
2022/01/10 07:01:27;;;;;;;22.05;6.80;;;1.80;99.90;;;;;;4233988;28;20055;-85
2022/01/10 07:03:28;;;;;;;19.98;7.20;;;1.70;99.90;;;;;;4252070;27;20063;-85
2022/01/10 07:05:29;;;;;;;19.52;6.43;;;1.10;99.90;;;;;;4252272;27;20039;-85
2022/01/10 07:07:30;;;;;;;20.45;6.63;;;1.10;99.90;;;;;;4252488;27;20051;-85
2022/01/10 07:09:31;;;;;;;21.63;7.28;;;1.90;99.90;;;;;;4234073;28;20498;-85
2022/01/10 07:11:33;;;;;;;23.27;7.63;;;1.10;99.90;;;;;;4233377;28;20449;-85
2022/01/10 07:13:33;;;;;;;22.80;7.85;;;1.10;99.90;;;;;;4216622;28;20181;-85
2022/01/10 07:15:34;;;;;;;18.92;7.03;;;2.40;99.90;;;;;;4260504;27;20039;-85
2022/01/10 07:17:35;;;;;;;19.27;6.97;;;1.00;99.90;;;;;;4250264;27;20100;-85
2022/01/10 07:19:36;;;;;;;23.27;7.25;;;1.00;99.90;;;;;;4268455;27;20114;-86
2022/01/10 07:21:39;;;;;;;22.60;7.93;;;2.20;99.90;;;;;;4230648;28;20054;-84
2022/01/10 07:23:42;;;;;;;19.30;7.43;;;1.40;99.90;;;;;;4239131;27;20047;-84
2022/01/10 07:25:46;;;;;;;26.63;8.15;;;1.00;99.90;;;;;;4232236;28;20043;-84
2022/01/10 07:27:47;;;;;;;14.80;7.00;;;1.50;99.90;;;;;;4248059;27;20095;-84
2022/01/10 07:29:50;;;;;;;25.23;7.10;;;2.30;99.90;;;;;;4251143;27;20384;-84
2022/01/10 07:31:52;;;;;;;25.08;7.50;;;1.30;99.90;;;;;;4233698;28;20121;-84
2022/01/10 07:33:54;;;;;;;17.35;7.85;;;1.10;99.90;;;;;;4250783;27;20098;-84
2022/01/10 07:35:56;;;;;;;21.80;7.68;;;2.30;99.90;;;;;;4253252;27;20047;-85
2022/01/10 07:37:59;;;;;;;28.02;7.95;;;1.40;99.90;;;;;;4228711;28;20296;-85
2022/01/10 07:40:05;;;;;;;20.75;8.55;;;1.00;99.90;;;;;;4268556;27;20039;-85
2022/01/10 07:42:06;;;;;;;26.15;7.80;;;1.00;99.90;;;;;;4259260;27;20055;-85
2022/01/10 07:44:08;;;;;;;26.98;8.90;;;1.10;99.90;;;;;;4264761;27;20371;-85
2022/01/10 07:46:11;;;;;;;23.48;8.55;;;2.60;99.90;;;;;;4270761;27;20082;-85
2022/01/10 07:48:12;;;;;;;27.50;8.93;;;1.00;99.90;;;;;;4268426;27;20117;-85
2022/01/10 07:50:12;;;;;;;18.65;7.68;;;1.80;99.90;;;;;;4242316;27;20473;-85
2022/01/10 07:52:13;;;;;;;26.27;8.35;;;1.50;99.90;;;;;;4238583;27;20035;-85
2022/01/10 07:54:14;;;;;;;24.17;8.23;;;1.10;99.90;;;;;;4264475;27;20486;-84
2022/01/10 07:56:15;;;;;;;21.40;8.15;;;1.10;99.90;;;;;;4235478;27;20047;-84
2022/01/10 07:58:17;;;;;;;23.15;9.02;;;2.10;99.90;;;;;;4254558;27;20034;-85
2022/01/10 08:00:23;;;;;;;25.45;8.30;;;1.00;99.90;;;;;;4262849;27;20046;-84
2022/01/10 08:02:26;;;;;;;29.00;8.40;;;1.00;99.90;;;;;;4215033;28;20043;-85
2022/01/10 08:04:26;;;;;;;17.80;7.32;;;1.50;99.90;;;;;;4250822;27;20075;-86
2022/01/10 08:06:27;;;;;;;21.63;8.15;;;1.70;99.90;;;;;;4268892;27;20035;-85
2022/01/10 08:08:28;;;;;;;31.45;9.13;;;2.60;99.90;;;;;;4251815;27;20129;-85
2022/01/10 08:10:30;;;;;;;22.98;8.63;;;1.90;99.90;;;;;;4265988;27;20402;-84
2022/01/10 08:12:31;;;;;;;23.75;8.38;;;1.10;99.90;;;;;;4257372;27;20455;-83
2022/01/10 08:14:33;;;;;;;31.58;9.50;;;1.70;99.90;;;;;;4234055;28;20044;-85
2022/01/10 08:16:34;;;;;;;27.05;9.45;;;2.20;99.90;;;;;;4217145;28;20040;-85
2022/01/10 08:18:35;;;;;;;23.77;8.57;;;1.80;99.90;;;;;;4250948;27;20075;-85
2022/01/10 08:20:37;;;;;;;31.65;9.38;;;1.70;99.90;;;;;;4233001;28;20045;-85
2022/01/10 08:22:39;;;;;;;25.00;8.93;;;1.10;99.90;;;;;;4250512;27;20053;-85
2022/01/10 08:24:40;;;;;;;27.27;8.60;;;1.20;99.90;;;;;;4232411;28;20109;-85
2022/01/10 08:26:41;;;;;;;26.02;9.07;;;0.20;99.90;;;;;;4215693;28;20156;-86
2022/01/10 08:28:42;;;;;;;30.90;9.10;;;1.40;99.90;;;;;;4231960;28;20051;-86
2022/01/10 08:30:43;;;;;;;26.08;9.63;;;2.00;99.90;;;;;;4248866;27;20353;-86
2022/01/10 08:32:50;;;;;;;29.83;9.20;;;2.60;99.90;;;;;;4242402;27;20134;-86
2022/01/10 08:34:57;;;;;;;27.80;9.63;;;2.50;99.90;;;;;;4251387;27;20079;-86
2022/01/10 08:36:59;;;;;;;23.52;8.38;;;1.40;99.90;;;;;;4245936;27;20050;-87
2022/01/10 08:39:04;;;;;;;26.27;9.52;;;2.40;99.90;;;;;;4267820;27;20038;-86
2022/01/10 08:41:07;;;;;;;29.00;11.07;;;1.50;99.90;;;;;;4267494;27;20870;-86
2022/01/10 08:43:10;;;;;;;27.17;9.85;;;1.70;99.90;;;;;;4264728;27;20099;-85
2022/01/10 08:45:12;;;;;;;29.83;10.45;;;3.00;99.90;;;;;;4251709;27;20118;-85
2022/01/10 08:47:21;;;;;;;32.28;10.43;;;1.90;99.90;;;;;;4216102;28;20048;-86
2022/01/10 08:49:23;;;;;;;29.13;11.15;;;2.00;99.90;;;;;;4261507;27;20050;-87
2022/01/10 08:51:25;;;;;;;22.63;9.50;;;2.90;99.90;;;;;;4251320;27;20159;-87
2022/01/10 08:53:27;;;;;;;27.15;8.95;;;3.70;99.90;;;;;;4214661;28;20043;-87
2022/01/10 08:55:28;;;;;;;23.20;9.15;;;3.40;99.90;;;;;;4232260;28;20035;-86
2022/01/10 08:57:29;;;;;;;23.20;9.18;;;2.50;99.90;;;;;;4251491;27;20049;-86
2022/01/10 08:59:29;;;;;;;20.10;9.02;;;2.80;99.90;;;;;;4216439;28;20048;-87
2022/01/10 09:01:31;;;;;;;23.63;9.13;;;1.90;99.90;;;;;;4250172;27;20494;-87
2022/01/10 09:03:33;;;;;;;27.52;8.73;;;3.90;99.90;;;;;;4241905;27;20114;-86
2022/01/10 09:05:40;;;;;;;25.00;9.32;;;3.20;99.90;;;;;;4253776;27;20459;-87
2022/01/10 09:07:43;;;;;;;27.65;9.07;;;3.00;99.90;;;;;;4249911;27;20112;-87
2022/01/10 09:09:44;;;;;;;26.85;9.63;;;4.80;99.90;;;;;;4248270;27;20135;-86
2022/01/10 09:11:45;;;;;;;25.63;8.63;;;5.00;99.90;;;;;;4268075;27;20035;-87
2022/01/10 09:13:46;;;;;;;18.92;7.47;;;5.30;99.90;;;;;;4256545;27;20043;-87
2022/01/10 09:15:53;;;;;;;23.55;7.80;;;6.60;99.90;;;;;;4261005;27;20045;-86
2022/01/10 09:17:54;;;;;;;30.15;8.60;;;5.60;99.90;;;;;;4273022;27;20098;-87
2022/01/10 09:19:55;;;;;;;17.27;8.18;;;7.00;99.90;;;;;;4268245;27;20035;-87
2022/01/10 09:22:01;;;;;;;20.60;7.22;;;8.00;99.90;;;;;;4266822;28;20047;-86
2022/01/10 09:24:04;;;;;;;28.33;8.73;;;7.40;99.90;;;;;;4268188;28;20054;-86
2022/01/10 09:26:05;;;;;;;21.10;8.07;;;;;;;;;;4282162;27;20061;-88
2022/01/10 09:28:09;;;;;;;26.15;8.13;;;7.80;99.90;;;;;;4251742;28;20039;-87
2022/01/10 09:30:16;;;;;;;19.42;7.53;;;8.50;99.90;;;;;;4244418;28;20047;-88
2022/01/10 09:32:17;;;;;;;20.98;8.10;;;;;;;;;;4231221;28;20051;-86
2022/01/10 09:34:18;;;;;;;18.63;7.25;;;9.10;99.90;;;;;;4230387;28;20604;-87
2022/01/10 09:36:20;;;;;;;21.80;7.93;;;9.80;99.90;;;;;;4249006;27;20108;-87
2022/01/10 09:38:20;;;;;;;20.42;7.35;;;9.90;99.90;;;;;;4232962;28;20085;-87
2022/01/10 09:40:22;;;;;;;18.30;7.20;;;10.10;99.90;;;;;;4231252;28;20058;-88
2022/01/10 09:42:23;;;;;;;16.27;7.03;;;10.30;99.90;;;;;;4234373;28;20056;-87
2022/01/10 09:44:24;;;;;;;19.67;7.82;;;10.00;99.90;;;;;;4222660;28;20163;-87
2022/01/10 09:46:27;;;;;;;19.48;6.78;;;10.10;99.90;;;;;;4232397;28;20128;-87
2022/01/10 09:48:28;;;;;;;20.08;6.93;;;10.70;99.90;;;;;;4260780;27;20403;-86
2022/01/10 09:50:29;;;;;;;19.73;7.07;;;10.10;99.90;;;;;;4263476;27;20062;-86
2022/01/10 09:52:30;;;;;;;20.52;7.38;;;10.10;99.90;;;;;;4231866;28;20073;-86
2022/01/10 09:54:30;;;;;;;15.05;6.75;;;10.00;99.90;;;;;;4255463;27;20031;-86
2022/01/10 09:56:32;;;;;;;14.25;6.72;;;9.90;99.90;;;;;;4252596;27;20053;-87
2022/01/10 09:58:33;;;;;;;14.48;6.75;;;9.70;99.90;;;;;;4240564;28;20040;-86
2022/01/10 10:00:36;;;;;;;19.42;7.18;;;9.50;99.90;;;;;;4231429;28;20040;-87
2022/01/10 10:02:41;;;;;;;17.27;6.43;;;9.40;99.90;;;;;;4230330;28;20067;-87
2022/01/10 10:04:43;;;;;;;16.17;6.47;;;9.00;99.90;;;;;;4217144;28;20116;-88
2022/01/10 10:06:45;;;;;;;18.13;7.07;;;9.70;99.90;;;;;;4254694;27;20087;-87
2022/01/10 10:08:46;;;;;;;16.40;6.82;;;9.70;99.90;;;;;;4238515;27;20124;-87
2022/01/10 10:10:48;;;;;;;18.20;7.55;;;9.70;99.90;;;;;;4220556;28;20056;-87
2022/01/10 10:12:51;;;;;;;18.25;7.10;;;8.80;99.90;;;;;;4254669;27;20043;-88
2022/01/10 10:14:52;;;;;;;18.25;6.75;;;9.50;99.90;;;;;;4225754;28;20131;-88
2022/01/10 10:16:56;;;;;;;14.93;7.18;;;9.20;99.90;;;;;;4225962;28;20051;-87
2022/01/10 10:19:04;;;;;;;15.25;6.75;;;9.30;99.90;;;;;;4221588;27;20048;-87
2022/01/10 10:21:11;;;;;;;21.17;7.20;;;8.90;99.90;;;;;;4232036;27;20108;-87
2022/01/10 10:23:15;;;;;;;15.82;6.85;;;8.90;99.90;;;;;;4222429;28;20052;-87
2022/01/10 10:25:17;;;;;;;19.38;7.68;;;8.90;99.90;;;;;;4252216;27;20035;-88
2022/01/10 10:27:21;;;;;;;16.85;7.32;;;8.90;99.90;;;;;;4219234;28;20060;-88
2022/01/10 10:29:22;;;;;;;21.98;7.72;;;8.90;99.90;;;;;;4261835;27;20041;-89
2022/01/10 10:31:32;;;;;;;18.08;7.30;;;9.00;99.90;;;;;;4237095;27;20039;-88
2022/01/10 10:33:47;;;;;;;17.00;6.93;;;9.20;99.90;;;;;;4219609;28;20081;-89
2022/01/10 10:35:56;;;;;;;15.52;6.05;;;9.40;99.90;;;;;;4267457;27;20078;-89
2022/01/10 10:38:04;;;;;;;;;;;9.50;99.90;;;;;;4250803;27;20115;-91
2022/01/10 10:40:09;;;;;;;15.32;7.18;;;9.40;99.90;;;;;;4229504;28;20387;-89
2022/01/10 10:42:13;;;;;;;19.90;6.82;;;8.60;99.90;;;;;;4239516;27;20050;-89
2022/01/10 10:44:19;;;;;;;16.75;6.40;;;9.70;99.90;;;;;;4238371;27;20503;-88